createdAt,value
2019-02-24T00:00:03.191Z,61
2019-02-24T00:01:03.522Z,61
2019-02-24T00:02:03.162Z,61
2019-02-24T00:03:02.961Z,61
2019-02-24T00:04:03.311Z,61
2019-02-24T00:05:03.388Z,61
2019-02-24T00:06:02.863Z,61
2019-02-24T00:07:03.626Z,61
2019-02-24T00:08:02.877Z,61
2019-02-24T00:09:03.580Z,61
2019-02-24T00:10:03.181Z,61
2019-02-24T00:11:02.738Z,61
2019-02-24T00:12:03.088Z,61
2019-02-24T00:13:03.750Z,61
2019-02-24T00:14:02.986Z,61
2019-02-24T00:15:03.740Z,61
2019-02-24T00:16:02.990Z,61
2019-02-24T00:17:03.547Z,61
2019-02-24T00:18:03.056Z,61
2019-02-24T00:19:04.037Z,61
2019-02-24T00:20:03.241Z,62
2019-02-24T00:21:03.783Z,62
2019-02-24T00:22:01.822Z,62
2019-02-24T00:23:02.937Z,62
2019-02-24T00:24:03.168Z,62
2019-02-24T00:25:03.567Z,62
2019-02-24T00:26:04.908Z,62
2019-02-24T00:27:03.786Z,62
2019-02-24T00:28:07.627Z,62
2019-02-24T00:29:03.492Z,62
2019-02-24T00:30:03.112Z,62
2019-02-24T00:31:03.543Z,62
2019-02-24T00:32:03.705Z,62
2019-02-24T00:33:03.185Z,62
2019-02-24T00:34:03.737Z,62
2019-02-24T00:35:02.992Z,62
2019-02-24T00:36:03.683Z,62
2019-02-24T00:37:02.891Z,62
2019-02-24T00:38:03.657Z,62
2019-02-24T00:39:03.126Z,62
2019-02-24T00:40:03.511Z,62
2019-02-24T00:41:03.375Z,62
2019-02-24T00:42:03.480Z,62
2019-02-24T00:43:03.702Z,62
2019-02-24T00:44:02.816Z,62
2019-02-24T00:45:03.271Z,62
2019-02-24T00:46:02.801Z,62
2019-02-24T00:47:03.241Z,62
2019-02-24T00:48:03.014Z,62
2019-02-24T00:49:03.767Z,62
2019-02-24T00:50:03.337Z,62
2019-02-24T00:51:03.544Z,62
2019-02-24T00:52:03.279Z,62
2019-02-24T00:53:03.789Z,62
2019-02-24T00:54:03.395Z,62
2019-02-24T00:55:03.122Z,62
2019-02-24T00:56:03.189Z,62
2019-02-24T00:57:03.497Z,62
2019-02-24T00:58:03.147Z,62
2019-02-24T00:59:03.511Z,62
2019-02-24T01:00:02.953Z,62
2019-02-24T01:01:03.813Z,62
2019-02-24T01:02:02.942Z,62
2019-02-24T01:03:03.087Z,62
2019-02-24T01:04:03.228Z,63
2019-02-24T01:05:03.846Z,63
2019-02-24T01:06:03.358Z,62
2019-02-24T01:07:03.562Z,62
2019-02-24T01:08:02.944Z,62
2019-02-24T01:09:03.475Z,63
2019-02-24T01:10:03.065Z,63
2019-02-24T01:11:03.363Z,63
2019-02-24T01:12:02.777Z,63
2019-02-24T01:13:03.260Z,63
2019-02-24T01:14:03.845Z,63
2019-02-24T01:15:03.508Z,63
2019-02-24T01:16:02.949Z,63
2019-02-24T01:17:03.355Z,63
2019-02-24T01:18:03.914Z,63
2019-02-24T01:19:03.005Z,63
2019-02-24T01:20:03.573Z,63
2019-02-24T01:21:02.796Z,63
2019-02-24T01:22:03.771Z,63
2019-02-24T01:23:03.128Z,63
2019-02-24T01:24:03.648Z,63
2019-02-24T01:25:03.154Z,63
2019-02-24T01:26:03.334Z,63
2019-02-24T01:27:03.745Z,63
2019-02-24T01:28:03.298Z,63
2019-02-24T01:29:02.887Z,63
2019-02-24T01:30:03.495Z,63
2019-02-24T01:31:02.994Z,63
2019-02-24T01:32:03.554Z,63
2019-02-24T01:33:03.019Z,63
2019-02-24T01:34:03.239Z,63
2019-02-24T01:35:02.900Z,63
2019-02-24T01:36:03.243Z,63
2019-02-24T01:37:03.607Z,63
2019-02-24T01:38:03.148Z,63
2019-02-24T01:39:03.830Z,63
2019-02-24T01:40:03.115Z,63
2019-02-24T01:41:02.898Z,63
2019-02-24T01:42:02.879Z,63
2019-02-24T01:43:03.824Z,63
2019-02-24T01:44:02.899Z,63
2019-02-24T01:45:03.741Z,63
2019-02-24T01:46:02.898Z,63
2019-02-24T01:47:03.633Z,63
2019-02-24T01:48:02.739Z,63
2019-02-24T01:49:03.501Z,63
2019-02-24T01:50:03.769Z,63
2019-02-24T01:51:03.295Z,63
2019-02-24T01:52:04.560Z,63
2019-02-24T01:53:02.785Z,63
2019-02-24T01:54:03.522Z,63
2019-02-24T01:55:03.802Z,63
2019-02-24T01:56:02.963Z,63
2019-02-24T01:57:02.806Z,63
2019-02-24T01:58:03.342Z,63
2019-02-24T01:59:03.720Z,63
2019-02-24T02:00:03.519Z,63
2019-02-24T02:01:02.791Z,63
2019-02-24T02:02:02.963Z,63
2019-02-24T02:03:03.609Z,63
2019-02-24T02:04:03.447Z,63
2019-02-24T02:05:03.499Z,63
2019-02-24T02:06:02.906Z,63
2019-02-24T02:07:03.245Z,63
2019-02-24T02:08:03.624Z,63
2019-02-24T02:09:03.101Z,63
2019-02-24T02:10:04.034Z,63
2019-02-24T02:11:03.020Z,63
2019-02-24T02:12:03.555Z,63
2019-02-24T02:13:03.233Z,64
2019-02-24T02:14:03.564Z,64
2019-02-24T02:15:03.148Z,64
2019-02-24T02:16:03.329Z,64
2019-02-24T02:17:02.904Z,64
2019-02-24T02:18:03.052Z,63
2019-02-24T02:19:02.718Z,63
2019-02-24T02:20:03.115Z,64
2019-02-24T02:21:03.400Z,64
2019-02-24T02:22:03.591Z,64
2019-02-24T02:23:02.895Z,63
2019-02-24T02:24:02.735Z,63
2019-02-24T02:25:03.516Z,63
2019-02-24T02:26:02.684Z,63
2019-02-24T02:27:03.499Z,63
2019-02-24T02:28:03.785Z,63
2019-02-24T02:29:03.306Z,64
2019-02-24T02:30:03.752Z,64
2019-02-24T02:31:02.914Z,64
2019-02-24T02:32:03.590Z,64
2019-02-24T02:33:03.053Z,64
2019-02-24T02:34:03.494Z,64
2019-02-24T02:35:03.375Z,64
2019-02-24T02:36:03.411Z,64
2019-02-24T02:37:03.010Z,64
2019-02-24T02:38:03.636Z,64
2019-02-24T02:39:03.218Z,64
2019-02-24T02:40:03.650Z,64
2019-02-24T02:41:03.073Z,64
2019-02-24T02:42:03.193Z,64
2019-02-24T02:43:02.953Z,64
2019-02-24T02:44:03.638Z,64
2019-02-24T02:45:03.208Z,64
2019-02-24T02:46:03.428Z,64
2019-02-24T02:47:02.750Z,64
2019-02-24T02:48:02.930Z,64
2019-02-24T02:49:04.849Z,64
2019-02-24T02:50:03.292Z,64
2019-02-24T02:51:03.665Z,64
2019-02-24T02:52:02.889Z,64
2019-02-24T02:53:03.169Z,64
2019-02-24T02:54:03.757Z,64
2019-02-24T02:55:03.063Z,64
2019-02-24T02:56:02.744Z,64
2019-02-24T02:57:03.165Z,64
2019-02-24T02:58:03.390Z,64
2019-02-24T02:59:02.944Z,64
2019-02-24T03:00:03.362Z,64
2019-02-24T03:01:03.741Z,64
2019-02-24T03:02:03.543Z,64
2019-02-24T03:03:02.942Z,64
2019-02-24T03:04:03.186Z,64
2019-02-24T03:05:03.623Z,65
2019-02-24T03:06:02.767Z,65
2019-02-24T03:07:03.467Z,65
2019-02-24T03:08:03.655Z,65
2019-02-24T03:09:03.186Z,65
2019-02-24T03:10:03.923Z,65
2019-02-24T03:11:03.191Z,65
2019-02-24T03:12:02.942Z,65
2019-02-24T03:13:03.227Z,65
2019-02-24T03:14:03.105Z,65
2019-02-24T03:15:03.762Z,65
2019-02-24T03:16:03.759Z,65
2019-02-24T03:17:03.357Z,65
2019-02-24T03:18:03.626Z,65
2019-02-24T03:19:03.540Z,65
2019-02-24T03:20:02.772Z,65
2019-02-24T03:21:03.213Z,65
2019-02-24T03:22:02.931Z,65
2019-02-24T03:23:03.212Z,65
2019-02-24T03:24:03.646Z,65
2019-02-24T03:25:03.151Z,65
2019-02-24T03:26:02.811Z,65
2019-02-24T03:27:03.026Z,65
2019-02-24T03:28:03.568Z,65
2019-02-24T03:29:04.768Z,65
2019-02-24T03:30:03.743Z,65
2019-02-24T03:31:02.883Z,65
2019-02-24T03:32:03.193Z,65
2019-02-24T03:33:03.700Z,65
2019-02-24T03:34:02.969Z,65
2019-02-24T03:35:03.875Z,66
2019-02-24T03:36:02.960Z,66
2019-02-24T03:37:03.362Z,66
2019-02-24T03:38:02.677Z,66
2019-02-24T03:39:03.739Z,66
2019-02-24T03:40:03.148Z,66
2019-02-24T03:41:03.373Z,66
2019-02-24T03:42:03.897Z,66
2019-02-24T03:43:03.186Z,66
2019-02-24T03:44:03.466Z,66
2019-02-24T03:45:03.011Z,66
2019-02-24T03:46:03.782Z,66
2019-02-24T03:47:03.364Z,66
2019-02-24T03:48:03.583Z,66
2019-02-24T03:49:02.808Z,66
2019-02-24T03:50:03.552Z,66
2019-02-24T03:51:02.895Z,66
2019-02-24T03:52:03.283Z,66
2019-02-24T03:53:02.918Z,66
2019-02-24T03:54:02.976Z,66
2019-02-24T03:55:03.705Z,66
2019-02-24T03:56:03.013Z,66
2019-02-24T03:57:03.787Z,66
2019-02-24T03:58:02.846Z,66
2019-02-24T03:59:03.442Z,66
2019-02-24T04:00:03.383Z,66
2019-02-24T04:01:03.881Z,66
2019-02-24T04:02:03.152Z,67
2019-02-24T04:03:03.557Z,67
2019-02-24T04:04:03.217Z,67
2019-02-24T04:05:03.842Z,67
2019-02-24T04:06:03.666Z,67
2019-02-24T04:07:03.534Z,67
2019-02-24T04:08:03.079Z,67
2019-02-24T04:09:03.360Z,67
2019-02-24T04:10:02.774Z,67
2019-02-24T04:11:03.647Z,67
2019-02-24T04:12:03.102Z,67
2019-02-24T04:13:03.434Z,67
2019-02-24T04:14:02.978Z,67
2019-02-24T04:15:03.575Z,67
2019-02-24T04:16:03.443Z,68
2019-02-24T04:17:02.979Z,68
2019-02-24T04:18:03.663Z,68
2019-02-24T04:19:02.867Z,68
2019-02-24T04:20:02.842Z,68
2019-02-24T04:21:03.913Z,68
2019-02-24T04:22:03.172Z,68
2019-02-24T04:23:03.596Z,68
2019-02-24T04:24:02.948Z,68
2019-02-24T04:25:03.536Z,68
2019-02-24T04:26:03.048Z,69
2019-02-24T04:27:03.408Z,69
2019-02-24T04:28:02.933Z,69
2019-02-24T04:29:03.272Z,69
2019-02-24T04:30:03.902Z,69
2019-02-24T04:31:03.251Z,69
2019-02-24T04:32:03.625Z,69
2019-02-24T04:33:03.004Z,69
2019-02-24T04:34:03.129Z,69
2019-02-24T04:35:03.713Z,69
2019-02-24T04:36:03.172Z,70
2019-02-24T04:37:03.982Z,70
2019-02-24T04:38:02.864Z,70
2019-02-24T04:39:03.559Z,70
2019-02-24T04:40:02.984Z,69
2019-02-24T04:41:03.617Z,69
2019-02-24T04:42:02.828Z,69
2019-02-24T04:43:03.288Z,69
2019-02-24T04:44:03.090Z,69
2019-02-24T04:45:03.248Z,69
2019-02-24T04:46:03.557Z,69
2019-02-24T04:47:03.170Z,70
2019-02-24T04:48:03.311Z,70
2019-02-24T04:49:02.806Z,70
2019-02-24T04:50:03.425Z,70
2019-02-24T04:51:03.702Z,70
2019-02-24T04:52:03.054Z,70
2019-02-24T04:53:03.464Z,70
2019-02-24T04:54:03.074Z,70
2019-02-24T04:55:03.296Z,70
2019-02-24T04:56:03.074Z,71
2019-02-24T04:57:03.475Z,71
2019-02-24T04:58:04.057Z,71
2019-02-24T04:59:03.271Z,71
2019-02-24T05:00:03.002Z,71
2019-02-24T05:01:03.272Z,71
2019-02-24T05:02:02.803Z,71
2019-02-24T05:03:03.307Z,71
2019-02-24T05:04:02.858Z,71
2019-02-24T05:05:03.290Z,71
2019-02-24T05:06:02.911Z,71
2019-02-24T05:07:03.175Z,71
2019-02-24T05:08:03.685Z,71
2019-02-24T05:09:03.308Z,71
2019-02-24T05:10:03.122Z,71
2019-02-24T05:11:02.915Z,71
2019-02-24T05:12:03.503Z,71
2019-02-24T05:13:03.094Z,71
2019-02-24T05:14:03.256Z,71
2019-02-24T05:15:03.828Z,71
2019-02-24T05:16:03.678Z,71
2019-02-24T05:17:03.152Z,71
2019-02-24T05:18:03.615Z,71
2019-02-24T05:19:03.237Z,71
2019-02-24T05:20:03.816Z,71
2019-02-24T05:21:03.494Z,71
2019-02-24T05:22:03.569Z,71
2019-02-24T05:23:02.930Z,71
2019-02-24T05:24:03.357Z,71
2019-02-24T05:25:03.838Z,71
2019-02-24T05:26:03.374Z,71
2019-02-24T05:27:02.905Z,71
2019-02-24T05:28:02.985Z,71
2019-02-24T05:29:03.346Z,71
2019-02-24T05:30:03.006Z,71
2019-02-24T05:31:03.700Z,71
2019-02-24T05:32:02.826Z,71
2019-02-24T05:33:03.511Z,71
2019-02-24T05:34:02.732Z,71
2019-02-24T05:35:03.540Z,71
2019-02-24T05:36:03.696Z,70
2019-02-24T05:37:03.455Z,70
2019-02-24T05:38:02.851Z,70
2019-02-24T05:39:03.190Z,71
2019-02-24T05:40:02.945Z,71
2019-02-24T05:41:03.004Z,71
2019-02-24T05:42:03.383Z,71
2019-02-24T05:43:03.007Z,71
2019-02-24T05:44:03.595Z,71
2019-02-24T05:45:03.036Z,71
2019-02-24T05:46:03.990Z,71
2019-02-24T05:47:02.924Z,71
2019-02-24T05:48:03.375Z,71
2019-02-24T05:49:03.641Z,71
2019-02-24T05:50:03.684Z,71
2019-02-24T05:51:03.093Z,71
2019-02-24T05:52:03.564Z,71
2019-02-24T05:53:03.724Z,71
2019-02-24T05:54:03.072Z,71
2019-02-24T05:55:03.565Z,71
2019-02-24T05:56:03.026Z,71
2019-02-24T05:57:03.856Z,71
2019-02-24T05:58:02.889Z,71
2019-02-24T05:59:03.794Z,71
2019-02-24T06:00:03.170Z,71
2019-02-24T06:01:03.566Z,71
2019-02-24T06:02:03.716Z,71
2019-02-24T06:03:03.643Z,71
2019-02-24T06:04:02.862Z,71
2019-02-24T06:05:03.571Z,71
2019-02-24T06:06:03.757Z,71
2019-02-24T06:07:02.954Z,71
2019-02-24T06:08:03.437Z,71
2019-02-24T06:09:03.202Z,71
2019-02-24T06:10:03.492Z,71
2019-02-24T06:11:02.965Z,70
2019-02-24T06:12:03.675Z,70
2019-02-24T06:13:02.716Z,70
2019-02-24T06:14:03.324Z,70
2019-02-24T06:15:03.977Z,70
2019-02-24T06:16:02.833Z,70
2019-02-24T06:17:03.849Z,70
2019-02-24T06:18:03.334Z,70
2019-02-24T06:19:03.615Z,70
2019-02-24T06:20:03.292Z,70
2019-02-24T06:21:03.663Z,70
2019-02-24T06:22:03.642Z,70
2019-02-24T06:23:03.278Z,70
2019-02-24T06:24:03.028Z,70
2019-02-24T06:25:03.363Z,70
2019-02-24T06:26:03.658Z,70
2019-02-24T06:27:03.129Z,69
2019-02-24T06:28:03.593Z,69
2019-02-24T06:29:02.926Z,69
2019-02-24T06:30:06.041Z,69
2019-02-24T06:31:03.080Z,69
2019-02-24T06:32:03.586Z,69
2019-02-24T06:33:03.007Z,69
2019-02-24T06:34:03.387Z,69
2019-02-24T06:35:03.140Z,69
2019-02-24T06:36:03.242Z,69
2019-02-24T06:37:02.925Z,69
2019-02-24T06:38:02.978Z,70
2019-02-24T06:39:03.797Z,70
2019-02-24T06:40:02.923Z,70
2019-02-24T06:41:03.874Z,70
2019-02-24T06:42:03.186Z,70
2019-02-24T06:43:03.715Z,69
2019-02-24T06:44:03.288Z,70
2019-02-24T06:45:03.662Z,70
2019-02-24T06:46:03.094Z,69
2019-02-24T06:47:03.677Z,69
2019-02-24T06:48:03.191Z,69
2019-02-24T06:49:03.415Z,70
2019-02-24T06:50:03.105Z,70
2019-02-24T06:51:03.548Z,70
2019-02-24T06:52:02.852Z,70
2019-02-24T06:53:03.283Z,70
2019-02-24T06:54:03.636Z,70
2019-02-24T06:55:03.120Z,70
2019-02-24T06:56:02.815Z,70
2019-02-24T06:57:03.205Z,70
2019-02-24T06:58:02.940Z,70
2019-02-24T06:59:03.397Z,70
2019-02-24T07:00:03.747Z,70
2019-02-24T07:01:03.011Z,70
2019-02-24T07:02:03.735Z,70
2019-02-24T07:03:03.058Z,70
2019-02-24T07:04:03.455Z,70
2019-02-24T07:05:03.481Z,70
2019-02-24T07:06:02.813Z,70
2019-02-24T07:07:03.151Z,70
2019-02-24T07:08:02.894Z,69
2019-02-24T07:09:03.384Z,69
2019-02-24T07:10:03.009Z,69
2019-02-24T07:11:03.444Z,69
2019-02-24T07:12:02.923Z,69
2019-02-24T07:13:03.121Z,69
2019-02-24T07:14:03.651Z,69
2019-02-24T07:15:03.106Z,69
2019-02-24T07:16:03.558Z,69
2019-02-24T07:17:03.795Z,69
2019-02-24T07:18:03.793Z,69
2019-02-24T07:19:03.888Z,69
2019-02-24T07:20:03.235Z,69
2019-02-24T07:21:03.298Z,69
2019-02-24T07:22:03.851Z,69
2019-02-24T07:23:03.247Z,69
2019-02-24T07:24:03.069Z,69
2019-02-24T07:25:03.364Z,68
2019-02-24T07:26:03.375Z,68
2019-02-24T07:27:03.221Z,68
2019-02-24T07:28:03.673Z,68
2019-02-24T07:29:03.524Z,68
2019-02-24T07:30:02.987Z,68
2019-02-24T07:31:03.576Z,67
2019-02-24T07:32:02.633Z,67
2019-02-24T07:33:03.153Z,67
2019-02-24T07:34:02.668Z,67
2019-02-24T07:35:03.318Z,67
2019-02-24T07:36:03.740Z,67
2019-02-24T07:37:12.543Z,67
2019-02-24T07:38:03.738Z,67
2019-02-24T07:39:03.380Z,67
2019-02-24T07:40:03.638Z,67
2019-02-24T07:41:03.198Z,66
2019-02-24T07:42:03.404Z,66
2019-02-24T07:43:03.010Z,66
2019-02-24T07:44:03.475Z,66
2019-02-24T07:45:03.081Z,66
2019-02-24T07:46:03.484Z,66
2019-02-24T07:47:02.687Z,66
2019-02-24T07:48:03.437Z,66
2019-02-24T07:49:02.964Z,66
2019-02-24T07:50:03.409Z,66
2019-02-24T07:51:02.739Z,66
2019-02-24T07:52:03.271Z,65
2019-02-24T07:53:02.820Z,65
2019-02-24T07:54:03.335Z,65
2019-02-24T07:55:02.924Z,65
2019-02-24T07:56:03.269Z,65
2019-02-24T07:57:02.619Z,65
2019-02-24T07:58:02.930Z,65
2019-02-24T07:59:03.615Z,65
2019-02-24T08:00:03.186Z,64
2019-02-24T08:01:02.845Z,64
2019-02-24T08:02:03.276Z,64
2019-02-24T08:03:03.772Z,64
2019-02-24T08:04:03.238Z,64
2019-02-24T08:05:03.954Z,64
2019-02-24T08:06:03.366Z,64
2019-02-24T08:07:03.688Z,64
2019-02-24T08:08:03.671Z,64
2019-02-24T08:09:03.560Z,64
2019-02-24T08:10:02.893Z,64
2019-02-24T08:11:03.320Z,64
2019-02-24T08:12:03.048Z,64
2019-02-24T08:13:03.475Z,63
2019-02-24T08:14:03.928Z,63
2019-02-24T08:15:03.432Z,63
2019-02-24T08:16:03.591Z,63
2019-02-24T08:17:03.095Z,63
2019-02-24T08:18:03.532Z,63
2019-02-24T08:19:02.980Z,63
2019-02-24T08:20:03.266Z,63
2019-02-24T08:21:03.175Z,63
2019-02-24T08:22:03.151Z,63
2019-02-24T08:23:03.728Z,62
2019-02-24T08:24:02.948Z,62
2019-02-24T08:25:03.545Z,62
2019-02-24T08:26:03.052Z,62
2019-02-24T08:27:02.653Z,62
2019-02-24T08:28:03.214Z,62
2019-02-24T08:29:03.677Z,62
2019-02-24T08:30:03.357Z,62
2019-02-24T08:31:03.788Z,62
2019-02-24T08:32:03.111Z,62
2019-02-24T08:33:03.611Z,62
2019-02-24T08:34:03.078Z,62
2019-02-24T08:35:03.543Z,61
2019-02-24T08:36:03.006Z,61
2019-02-24T08:37:03.558Z,61
2019-02-24T08:38:02.958Z,61
2019-02-24T08:39:03.754Z,61
2019-02-24T08:40:02.995Z,61
2019-02-24T08:41:03.493Z,60
2019-02-24T08:42:03.260Z,60
2019-02-24T08:43:03.265Z,60
2019-02-24T08:44:02.763Z,60
2019-02-24T08:45:03.307Z,60
2019-02-24T08:46:03.809Z,60
2019-02-24T08:47:03.063Z,60
2019-02-24T08:48:03.520Z,60
2019-02-24T08:49:03.681Z,60
2019-02-24T08:50:03.078Z,60
2019-02-24T08:51:03.502Z,60
2019-02-24T08:52:03.397Z,60
2019-02-24T08:53:03.427Z,60
2019-02-24T08:54:03.224Z,59
2019-02-24T08:55:03.766Z,59
2019-02-24T08:56:03.864Z,59
2019-02-24T08:57:03.418Z,59
2019-02-24T08:58:03.709Z,58
2019-02-24T08:59:03.418Z,58
2019-02-24T09:00:03.036Z,58
2019-02-24T09:01:03.357Z,57
2019-02-24T09:02:03.447Z,58
2019-02-24T09:03:02.942Z,58
2019-02-24T09:04:03.696Z,57
2019-02-24T09:05:03.606Z,57
2019-02-24T09:06:03.326Z,56
2019-02-24T09:07:03.750Z,57
2019-02-24T09:08:03.153Z,57
2019-02-24T09:09:03.674Z,57
2019-02-24T09:10:03.144Z,57
2019-02-24T09:11:03.649Z,57
2019-02-24T09:12:03.023Z,57
2019-02-24T09:13:03.293Z,57
2019-02-24T09:14:03.004Z,56
2019-02-24T09:15:03.432Z,56
2019-02-24T09:16:03.614Z,56
2019-02-24T09:17:03.280Z,57
2019-02-24T09:18:02.953Z,56
2019-02-24T09:19:03.055Z,56
2019-02-24T09:20:03.885Z,55
2019-02-24T09:21:02.969Z,55
2019-02-24T09:22:02.899Z,55
2019-02-24T09:23:03.422Z,55
2019-02-24T09:24:02.767Z,55
2019-02-24T09:25:03.762Z,55
2019-02-24T09:26:02.879Z,55
2019-02-24T09:27:03.379Z,55
2019-02-24T09:28:02.933Z,55
2019-02-24T09:29:03.147Z,54
2019-02-24T09:30:03.074Z,54
2019-02-24T09:31:03.346Z,54
2019-02-24T09:32:03.096Z,54
2019-02-24T09:33:03.514Z,54
2019-02-24T09:34:02.839Z,54
2019-02-24T09:35:03.571Z,54
2019-02-24T09:36:02.886Z,53
2019-02-24T09:37:03.465Z,53
2019-02-24T09:38:03.118Z,53
2019-02-24T09:39:03.256Z,53
2019-02-24T09:40:03.916Z,53
2019-02-24T09:41:03.139Z,53
2019-02-24T09:42:03.721Z,53
2019-02-24T09:43:03.237Z,53
2019-02-24T09:44:03.798Z,53
2019-02-24T09:45:03.111Z,52
2019-02-24T09:46:03.177Z,52
2019-02-24T09:47:03.551Z,52
2019-02-24T09:48:03.197Z,52
2019-02-24T09:49:02.995Z,51
2019-02-24T09:50:03.664Z,51
2019-02-24T09:51:03.587Z,51
2019-02-24T09:52:03.161Z,51
2019-02-24T09:53:03.409Z,51
2019-02-24T09:54:02.703Z,51
2019-02-24T09:55:03.312Z,51
2019-02-24T09:56:02.939Z,51
2019-02-24T09:57:03.552Z,51
2019-02-24T09:58:02.951Z,51
2019-02-24T09:59:03.046Z,51
2019-02-24T10:00:03.467Z,51
2019-02-24T10:01:11.219Z,51
2019-02-24T10:02:03.779Z,50
2019-02-24T10:03:03.374Z,50
2019-02-24T10:04:03.785Z,50
2019-02-24T10:05:03.441Z,50
2019-02-24T10:06:03.151Z,50
2019-02-24T10:07:02.842Z,50
2019-02-24T10:08:03.405Z,50
2019-02-24T10:09:02.908Z,50
2019-02-24T10:10:03.705Z,50
2019-02-24T10:11:03.793Z,50
2019-02-24T10:12:02.980Z,49
2019-02-24T10:13:03.781Z,49
2019-02-24T10:14:03.059Z,49
2019-02-24T10:15:03.358Z,49
2019-02-24T10:16:03.148Z,48
2019-02-24T10:17:03.532Z,48
2019-02-24T10:18:02.704Z,48
2019-02-24T10:19:03.165Z,48
2019-02-24T10:20:02.873Z,49
2019-02-24T10:21:02.043Z,49
2019-02-24T10:22:02.644Z,49
2019-02-24T10:23:03.393Z,48
2019-02-24T10:24:03.777Z,48
2019-02-24T10:25:03.284Z,48
2019-02-24T10:26:03.595Z,48
2019-02-24T10:27:02.920Z,48
2019-02-24T10:28:03.456Z,48
2019-02-24T10:29:03.124Z,48
2019-02-24T10:30:03.962Z,48
2019-02-24T10:31:03.702Z,48
2019-02-24T10:32:03.302Z,49
2019-02-24T10:33:03.668Z,49
2019-02-24T10:34:03.265Z,49
2019-02-24T10:35:03.689Z,49
2019-02-24T10:36:03.126Z,49
2019-02-24T10:37:03.572Z,49
2019-02-24T10:38:03.954Z,48
2019-02-24T10:39:03.139Z,48
2019-02-24T10:40:03.266Z,48
2019-02-24T10:41:02.233Z,48
2019-02-24T10:42:03.719Z,48
2019-02-24T10:43:03.330Z,48
2019-02-24T10:44:03.588Z,49
2019-02-24T10:45:03.191Z,48
2019-02-24T10:46:03.134Z,49
2019-02-24T10:47:03.111Z,48
2019-02-24T10:48:03.499Z,48
2019-02-24T10:49:03.933Z,48
2019-02-24T10:50:03.186Z,48
2019-02-24T10:51:03.628Z,48
2019-02-24T10:52:02.840Z,48
2019-02-24T10:53:03.535Z,48
2019-02-24T10:54:02.989Z,48
2019-02-24T10:55:02.758Z,48
2019-02-24T10:56:03.724Z,48
2019-02-24T10:57:03.363Z,48
2019-02-24T10:58:03.553Z,48
2019-02-24T10:59:03.420Z,48
2019-02-24T11:00:03.775Z,48
2019-02-24T11:01:03.540Z,48
2019-02-24T11:02:03.023Z,48
2019-02-24T11:03:03.140Z,47
2019-02-24T11:04:03.693Z,47
2019-02-24T11:05:02.890Z,47
2019-02-24T11:06:03.527Z,47
2019-02-24T11:07:02.940Z,47
2019-02-24T11:08:03.210Z,47
2019-02-24T11:09:03.368Z,47
2019-02-24T11:10:04.243Z,47
2019-02-24T11:11:03.302Z,47
2019-02-24T11:12:03.409Z,47
2019-02-24T11:13:02.847Z,47
2019-02-24T11:14:03.843Z,47
2019-02-24T11:15:03.262Z,47
2019-02-24T11:16:03.557Z,47
2019-02-24T11:17:03.275Z,47
2019-02-24T11:18:02.943Z,47
2019-02-24T11:19:03.601Z,47
2019-02-24T11:20:03.277Z,47
2019-02-24T11:21:03.498Z,47
2019-02-24T11:22:03.064Z,47
2019-02-24T11:23:03.265Z,47
2019-02-24T11:24:02.911Z,47
2019-02-24T11:25:03.196Z,47
2019-02-24T11:26:03.521Z,47
2019-02-24T11:27:03.508Z,47
2019-02-24T11:28:03.475Z,47
2019-02-24T11:29:03.066Z,47
2019-02-24T11:30:03.099Z,47
2019-02-24T11:31:02.769Z,47
2019-02-24T11:32:03.170Z,47
2019-02-24T11:33:02.922Z,47
2019-02-24T11:34:03.418Z,47
2019-02-24T11:35:03.198Z,47
2019-02-24T11:36:03.433Z,47
2019-02-24T11:37:03.300Z,47
2019-02-24T11:38:03.267Z,47
2019-02-24T11:39:03.761Z,47
2019-02-24T11:40:03.001Z,47
2019-02-24T11:41:02.753Z,48
2019-02-24T11:42:03.426Z,48
2019-02-24T11:43:03.397Z,48
2019-02-24T11:44:03.074Z,48
2019-02-24T11:45:03.824Z,48
2019-02-24T11:46:02.744Z,48
2019-02-24T11:47:03.693Z,48
2019-02-24T11:48:03.054Z,48
2019-02-24T11:49:03.621Z,48
2019-02-24T11:50:03.179Z,47
2019-02-24T11:51:03.383Z,47
2019-02-24T11:52:04.289Z,47
2019-02-24T11:53:03.621Z,47
2019-02-24T11:54:02.886Z,47
2019-02-24T11:55:03.276Z,47
2019-02-24T11:56:03.635Z,47
2019-02-24T11:57:03.001Z,47
2019-02-24T11:58:03.717Z,47
2019-02-24T11:59:02.908Z,47
2019-02-24T12:00:03.712Z,47
2019-02-24T12:01:03.034Z,47
2019-02-24T12:02:03.648Z,47
2019-02-24T12:03:03.040Z,47
2019-02-24T12:04:03.600Z,47
2019-02-24T12:05:02.985Z,47
2019-02-24T12:06:03.594Z,47
2019-02-24T12:07:03.748Z,47
2019-02-24T12:08:03.002Z,47
2019-02-24T12:09:05.667Z,47
2019-02-24T12:10:03.002Z,47
2019-02-24T12:11:03.461Z,47
2019-02-24T12:12:03.076Z,47
2019-02-24T12:13:03.598Z,47
2019-02-24T12:14:03.842Z,47
2019-02-24T12:15:03.521Z,47
2019-02-24T12:16:03.413Z,47
2019-02-24T12:17:03.248Z,47
2019-02-24T12:18:03.646Z,47
2019-02-24T12:19:03.329Z,47
2019-02-24T12:20:03.564Z,47
2019-02-24T12:21:03.035Z,47
2019-02-24T12:22:03.111Z,47
2019-02-24T12:23:03.607Z,47
2019-02-24T12:24:03.583Z,47
2019-02-24T12:25:03.534Z,47
2019-02-24T12:26:03.014Z,47
2019-02-24T12:27:03.203Z,47
2019-02-24T12:28:03.389Z,47
2019-02-24T12:29:03.804Z,47
2019-02-24T12:30:03.280Z,47
2019-02-24T12:31:03.786Z,47
2019-02-24T12:32:03.280Z,47
2019-02-24T12:33:03.706Z,47
2019-02-24T12:34:02.989Z,47
2019-02-24T12:35:03.643Z,47
2019-02-24T12:36:03.165Z,47
2019-02-24T12:37:03.717Z,47
2019-02-24T12:38:03.072Z,47
2019-02-24T12:39:03.280Z,46
2019-02-24T12:40:03.942Z,47
2019-02-24T12:41:03.096Z,47
2019-02-24T12:42:02.066Z,47
2019-02-24T12:43:04.060Z,47
2019-02-24T12:44:03.928Z,47
2019-02-24T12:45:03.492Z,47
2019-02-24T12:46:03.279Z,47
2019-02-24T12:47:03.460Z,47
2019-02-24T12:48:03.056Z,47
2019-02-24T12:49:03.369Z,46
2019-02-24T12:50:03.984Z,46
2019-02-24T12:51:03.960Z,46
2019-02-24T12:52:03.231Z,46
2019-02-24T12:53:03.319Z,46
2019-02-24T12:54:03.007Z,46
2019-02-24T12:55:03.584Z,46
2019-02-24T12:56:03.863Z,46
2019-02-24T12:57:03.319Z,46
2019-02-24T12:58:03.738Z,46
2019-02-24T12:59:03.119Z,46
2019-02-24T13:00:03.628Z,46
2019-02-24T13:01:03.328Z,46
2019-02-24T13:02:06.231Z,46
2019-02-24T13:03:03.271Z,46
2019-02-24T13:04:03.444Z,46
2019-02-24T13:05:03.399Z,47
2019-02-24T13:06:03.499Z,47
2019-02-24T13:07:02.969Z,47
2019-02-24T13:08:03.181Z,47
2019-02-24T13:09:04.005Z,47
2019-02-24T13:10:03.208Z,47
2019-02-24T13:11:03.763Z,47
2019-02-24T13:12:03.187Z,47
2019-02-24T13:13:03.735Z,47
2019-02-24T13:14:02.828Z,47
2019-02-24T13:15:03.679Z,47
2019-02-24T13:16:03.698Z,47
2019-02-24T13:17:03.156Z,47
2019-02-24T13:18:03.449Z,47
2019-02-24T13:19:03.147Z,46
2019-02-24T13:20:03.692Z,46
2019-02-24T13:21:03.475Z,47
2019-02-24T13:22:03.672Z,46
2019-02-24T13:23:02.976Z,46
2019-02-24T13:24:03.978Z,46
2019-02-24T13:25:03.352Z,46
2019-02-24T13:26:03.479Z,46
2019-02-24T13:27:05.884Z,46
2019-02-24T13:28:03.641Z,46
2019-02-24T13:29:03.015Z,46
2019-02-24T13:30:03.680Z,45
2019-02-24T13:31:03.717Z,45
2019-02-24T13:32:03.218Z,45
2019-02-24T13:33:03.330Z,46
2019-02-24T13:34:03.710Z,45
2019-02-24T13:35:03.785Z,45
2019-02-24T13:36:03.335Z,45
2019-02-24T13:37:03.821Z,46
2019-02-24T13:38:03.155Z,46
2019-02-24T13:39:03.681Z,45
2019-02-24T13:40:03.094Z,45
2019-02-24T13:41:03.723Z,45
2019-02-24T13:42:02.842Z,45
2019-02-24T13:43:03.631Z,45
2019-02-24T13:44:02.935Z,45
2019-02-24T13:45:03.651Z,45
2019-02-24T13:46:03.662Z,45
2019-02-24T13:47:03.286Z,45
2019-02-24T13:48:03.051Z,45
2019-02-24T13:49:03.266Z,45
2019-02-24T13:50:02.914Z,45
2019-02-24T13:51:03.323Z,45
2019-02-24T13:52:03.841Z,45
2019-02-24T13:53:03.348Z,45
2019-02-24T13:54:03.027Z,45
2019-02-24T13:55:03.664Z,45
2019-02-24T13:56:04.001Z,45
2019-02-24T13:57:03.509Z,45
2019-02-24T13:58:02.759Z,45
2019-02-24T13:59:03.503Z,45
2019-02-24T14:00:03.071Z,45
2019-02-24T14:01:03.541Z,45
2019-02-24T14:02:03.053Z,45
2019-02-24T14:03:03.126Z,45
2019-02-24T14:04:03.786Z,45
2019-02-24T14:05:03.140Z,45
2019-02-24T14:06:03.995Z,45
2019-02-24T14:07:03.805Z,46
2019-02-24T14:08:02.969Z,46
2019-02-24T14:09:03.555Z,46
2019-02-24T14:10:03.513Z,46
2019-02-24T14:11:03.396Z,45
2019-02-24T14:12:03.578Z,46
2019-02-24T14:13:03.366Z,46
2019-02-24T14:14:03.633Z,45
2019-02-24T14:15:03.134Z,46